Howe, Nebraska
Current Conditions -  °F | °C
As of 4:55 PM on Thursday 27 Nov 2014 (Local Time) from KAFK Reporting Station
Clear Clear  
Wind Chill: 18°   Ceiling: Unl
Heat Index: 27°   Visibility: 10mi
Dew Point: 11°   Wind: 8mph
Humidity: 53%   Direction: 130°SE
Pressure: 30.32"   Gusts: NA
Location:  40.3314°N, 95.8994°W
Report Text: KAFK 272255Z AUTO 13007KT 10SM CLR M03/M11 A3032 RMK AO2 T10301115
Loading
Personal Weather Stations






























Interactive Weather Map New forecast layout! Learn more

10-Day Weather Forecast

Advertisements
Track Severe Weather on mobile